sensor_id;sensor_type;location;lat;lon;timestamp;pressure;altitude;pressure_sealevel;temperature;humidity
19259;BME280;9763;48.780;9.212;2022-11-02T00:01:25;99007.41;;;13.81;68.29
19259;BME280;9763;48.780;9.212;2022-11-02T00:04:49;99004.13;;;13.78;68.36
19259;BME280;9763;48.780;9.212;2022-11-02T00:08:13;99003.53;;;13.74;68.14
19259;BME280;9763;48.780;9.212;2022-11-02T00:11:37;99014.22;;;13.71;67.85
19259;BME280;9763;48.780;9.212;2022-11-02T00:15:00;99012.75;;;13.67;67.85
19259;BME280;9763;48.780;9.212;2022-11-02T00:18:25;99015.59;;;13.64;68.13
19259;BME280;9763;48.780;9.212;2022-11-02T00:21:49;99012.34;;;13.60;67.85
19259;BME280;9763;48.780;9.212;2022-11-02T00:25:15;99007.38;;;13.56;67.93
19259;BME280;9763;48.780;9.212;2022-11-02T00:28:40;99010.09;;;13.54;68.07
19259;BME280;9763;48.780;9.212;2022-11-02T00:32:04;99012.13;;;13.51;68.16
19259;BME280;9763;48.780;9.212;2022-11-02T00:35:29;99022.72;;;13.49;68.33
19259;BME280;9763;48.780;9.212;2022-11-02T00:38:53;99016.72;;;13.47;68.43
19259;BME280;9763;48.780;9.212;2022-11-02T00:42:17;99018.59;;;13.45;68.26
19259;BME280;9763;48.780;9.212;2022-11-02T00:45:40;99018.59;;;13.45;68.53
19259;BME280;9763;48.780;9.212;2022-11-02T00:49:04;99017.75;;;13.45;67.84
19259;BME280;9763;48.780;9.212;2022-11-02T00:52:30;99020.28;;;13.46;68.51
19259;BME280;9763;48.780;9.212;2022-11-02T00:55:54;99021.88;;;13.49;67.83
19259;BME280;9763;48.780;9.212;2022-11-02T00:59:18;99025.34;;;13.49;68.56
19259;BME280;9763;48.780;9.212;2022-11-02T01:02:41;99025.44;;;13.48;68.74
19259;BME280;9763;48.780;9.212;2022-11-02T01:06:10;99035.81;;;13.49;68.67
19259;BME280;9763;48.780;9.212;2022-11-02T01:09:35;99036.66;;;13.50;68.35
19259;BME280;9763;48.780;9.212;2022-11-02T01:13:00;99021.88;;;13.49;68.37
19259;BME280;9763;48.780;9.212;2022-11-02T01:16:24;99026.28;;;13.48;68.22
19259;BME280;9763;48.780;9.212;2022-11-02T01:19:49;99021.13;;;13.47;68.79
19259;BME280;9763;48.780;9.212;2022-11-02T01:23:13;99022.91;;;13.46;68.96
19259;BME280;9763;48.780;9.212;2022-11-02T01:26:38;99022.72;;;13.49;69.17
19259;BME280;9763;48.780;9.212;2022-11-02T01:30:02;99013.38;;;13.58;68.78
19259;BME280;9763;48.780;9.212;2022-11-02T01:33:26;99016.09;;;13.69;68.90
19259;BME280;9763;48.780;9.212;2022-11-02T01:36:50;99011.06;;;13.79;69.34
19259;BME280;9763;48.780;9.212;2022-11-02T01:40:14;99014.63;;;13.90;69.39
19259;BME280;9763;48.780;9.212;2022-11-02T01:43:42;99016.66;;;13.99;69.88
19259;BME280;9763;48.780;9.212;2022-11-02T01:47:11;99015.16;;;14.08;69.99
19259;BME280;9763;48.780;9.212;2022-11-02T01:50:39;99011.03;;;14.17;70.33
19259;BME280;9763;48.780;9.212;2022-11-02T01:54:08;99000.97;;;14.23;70.25
19259;BME280;9763;48.780;9.212;2022-11-02T01:57:34;99002.84;;;14.34;69.94
19259;BME280;9763;48.780;9.212;2022-11-02T02:01:01;99001.56;;;14.39;69.96
19259;BME280;9763;48.780;9.212;2022-11-02T02:04:25;98994.84;;;14.48;69.06
19259;BME280;9763;48.780;9.212;2022-11-02T02:07:51;98991.78;;;14.54;69.45
19259;BME280;9763;48.780;9.212;2022-11-02T02:11:28;98982.00;;;14.56;69.33
19259;BME280;9763;48.780;9.212;2022-11-02T02:14:53;98965.59;;;14.53;68.49
19259;BME280;9763;48.780;9.212;2022-11-02T02:18:25;98964.28;;;14.47;68.33
19259;BME280;9763;48.780;9.212;2022-11-02T02:22:19;98963.88;;;14.40;68.56
19259;BME280;9763;48.780;9.212;2022-11-02T02:29:48;98954.19;;;14.28;68.66
19259;BME280;9763;48.780;9.212;2022-11-02T02:33:18;98958.13;;;14.23;68.74
19259;BME280;9763;48.780;9.212;2022-11-02T02:36:48;98959.47;;;14.16;68.88
19259;BME280;9763;48.780;9.212;2022-11-02T02:40:18;98958.03;;;14.12;68.34
19259;BME280;9763;48.780;9.212;2022-11-02T02:43:45;98958.25;;;14.09;68.67
19259;BME280;9763;48.780;9.212;2022-11-02T02:47:15;98958.47;;;14.05;68.92
19259;BME280;9763;48.780;9.212;2022-11-02T02:50:45;98963.72;;;14.05;69.23
19259;BME280;9763;48.780;9.212;2022-11-02T02:54:14;98958.78;;;14.01;69.09
19259;BME280;9763;48.780;9.212;2022-11-02T02:57:39;98964.84;;;14.01;69.09
19259;BME280;9763;48.780;9.212;2022-11-02T03:01:04;98951.88;;;14.00;68.64
19259;BME280;9763;48.780;9.212;2022-11-02T03:04:32;98949.25;;;14.00;69.18
19259;BME280;9763;48.780;9.212;2022-11-02T03:07:58;98945.78;;;13.99;68.95
19259;BME280;9763;48.780;9.212;2022-11-02T03:11:24;98944.94;;;13.99;68.97
19259;BME280;9763;48.780;9.212;2022-11-02T03:15:00;98946.94;;;13.95;69.18
19259;BME280;9763;48.780;9.212;2022-11-02T03:18:35;98939.06;;;13.95;69.04
19259;BME280;9763;48.780;9.212;2022-11-02T03:22:07;98940.75;;;13.96;68.89
19259;BME280;9763;48.780;9.212;2022-11-02T03:25:44;98946.72;;;13.98;68.98
19259;BME280;9763;48.780;9.212;2022-11-02T03:29:15;98958.06;;;13.99;69.04
19259;BME280;9763;48.780;9.212;2022-11-02T03:32:49;98955.44;;;13.99;69.43
19259;BME280;9763;48.780;9.212;2022-11-02T03:36:19;98957.13;;;14.00;69.00
19259;BME280;9763;48.780;9.212;2022-11-02T03:39:49;98945.66;;;14.01;69.04
19259;BME280;9763;48.780;9.212;2022-11-02T03:43:14;98964.03;;;14.01;69.38
19259;BME280;9763;48.780;9.212;2022-11-02T03:46:41;98966.66;;;14.01;69.28
19259;BME280;9763;48.780;9.212;2022-11-02T03:50:12;98967.38;;;14.03;69.18
19259;BME280;9763;48.780;9.212;2022-11-02T03:53:45;98966.53;;;14.02;69.40
19259;BME280;9763;48.780;9.212;2022-11-02T03:57:18;98970.09;;;14.01;69.47
19259;BME280;9763;48.780;9.212;2022-11-02T04:00:48;98974.41;;;14.02;69.57
19259;BME280;9763;48.780;9.212;2022-11-02T04:04:14;98975.16;;;14.04;69.72
19259;BME280;9763;48.780;9.212;2022-11-02T04:07:45;98970.53;;;14.08;69.75
19259;BME280;9763;48.780;9.212;2022-11-02T04:11:30;98974.00;;;14.09;69.33
19259;BME280;9763;48.780;9.212;2022-11-02T04:15:14;98980.09;;;14.09;69.47
19259;BME280;9763;48.780;9.212;2022-11-02T04:18:38;98983.34;;;14.13;70.19
19259;BME280;9763;48.780;9.212;2022-11-02T04:22:20;98978.09;;;14.13;69.59
19259;BME280;9763;48.780;9.212;2022-11-02T04:26:09;98982.28;;;14.15;69.96
19259;BME280;9763;48.780;9.212;2022-11-02T04:29:37;98989.00;;;14.19;70.13
19259;BME280;9763;48.780;9.212;2022-11-02T04:33:02;98987.94;;;14.22;70.15
19259;BME280;9763;48.780;9.212;2022-11-02T04:37:04;98994.78;;;14.24;69.96
19259;BME280;9763;48.780;9.212;2022-11-02T04:40:47;98992.16;;;14.24;69.55
19259;BME280;9763;48.780;9.212;2022-11-02T04:44:30;98993.09;;;14.23;69.47
19259;BME280;9763;48.780;9.212;2022-11-02T04:48:04;99001.38;;;14.17;69.35
19259;BME280;9763;48.780;9.212;2022-11-02T04:51:30;99004.56;;;14.10;69.16
19259;BME280;9763;48.780;9.212;2022-11-02T04:54:54;99006.00;;;14.01;68.80
19259;BME280;9763;48.780;9.212;2022-11-02T04:58:17;99002.16;;;13.94;68.97
19259;BME280;9763;48.780;9.212;2022-11-02T05:01:41;99000.81;;;13.88;69.57
19259;BME280;9763;48.780;9.212;2022-11-02T05:05:08;99001.09;;;13.84;69.05
19259;BME280;9763;48.780;9.212;2022-11-02T05:08:35;99006.25;;;13.85;69.86
19259;BME280;9763;48.780;9.212;2022-11-02T05:11:59;99004.25;;;13.89;70.25
19259;BME280;9763;48.780;9.212;2022-11-02T05:15:28;99009.91;;;13.95;69.89
19259;BME280;9763;48.780;9.212;2022-11-02T05:18:54;99012.94;;;14.02;70.50
19259;BME280;9763;48.780;9.212;2022-11-02T05:22:22;99012.53;;;14.08;70.38
19259;BME280;9763;48.780;9.212;2022-11-02T05:25:52;99017.34;;;14.14;70.30
19259;BME280;9763;48.780;9.212;2022-11-02T05:29:17;99008.41;;;14.17;70.12
19259;BME280;9763;48.780;9.212;2022-11-02T05:32:42;99019.44;;;14.22;70.52
19259;BME280;9763;48.780;9.212;2022-11-02T05:36:07;99023.75;;;14.23;69.89
19259;BME280;9763;48.780;9.212;2022-11-02T05:39:35;99025.31;;;14.25;69.91
19259;BME280;9763;48.780;9.212;2022-11-02T05:43:00;99019.84;;;14.28;69.90
19259;BME280;9763;48.780;9.212;2022-11-02T05:46:25;99032.97;;;14.28;69.91
19259;BME280;9763;48.780;9.212;2022-11-02T05:49:49;99015.44;;;14.29;70.13
19259;BME280;9763;48.780;9.212;2022-11-02T05:53:12;99024.88;;;14.31;69.89
19259;BME280;9763;48.780;9.212;2022-11-02T05:56:38;99021.44;;;14.31;70.01
19259;BME280;9763;48.780;9.212;2022-11-02T06:00:02;99029.41;;;14.29;70.18
19259;BME280;9763;48.780;9.212;2022-11-02T06:03:34;99022.56;;;14.27;69.51
19259;BME280;9763;48.780;9.212;2022-11-02T06:06:58;99035.50;;;14.30;69.42
19259;BME280;9763;48.780;9.212;2022-11-02T06:10:22;99030.44;;;14.27;69.46
19259;BME280;9763;48.780;9.212;2022-11-02T06:13:49;99031.19;;;14.29;69.44
19259;BME280;9763;48.780;9.212;2022-11-02T06:17:12;99037.28;;;14.29;69.45
19259;BME280;9763;48.780;9.212;2022-11-02T06:20:37;99038.03;;;14.31;69.50
19259;BME280;9763;48.780;9.212;2022-11-02T06:24:00;99050.00;;;14.35;69.52
19259;BME280;9763;48.780;9.212;2022-11-02T06:27:24;99045.34;;;14.39;69.77
19259;BME280;9763;48.780;9.212;2022-11-02T06:30:49;99046.84;;;14.43;69.69
19259;BME280;9763;48.780;9.212;2022-11-02T06:34:13;99056.91;;;14.49;70.12
19259;BME280;9763;48.780;9.212;2022-11-02T06:37:37;99059.22;;;14.54;69.74
19259;BME280;9763;48.780;9.212;2022-11-02T06:41:02;99062.28;;;14.60;69.50
19259;BME280;9763;48.780;9.212;2022-11-02T06:44:29;99063.50;;;14.67;70.05
19259;BME280;9763;48.780;9.212;2022-11-02T06:47:54;99070.84;;;14.75;69.94
19259;BME280;9763;48.780;9.212;2022-11-02T06:51:18;99077.84;;;14.87;69.45
19259;BME280;9763;48.780;9.212;2022-11-02T06:54:42;99086.19;;;15.05;69.77
19259;BME280;9763;48.780;9.212;2022-11-02T06:58:05;99095.72;;;15.19;69.67
19259;BME280;9763;48.780;9.212;2022-11-02T07:01:29;99097.56;;;15.29;69.35
19259;BME280;9763;48.780;9.212;2022-11-02T07:04:54;99104.88;;;15.37;69.33
19259;BME280;9763;48.780;9.212;2022-11-02T07:08:19;99113.06;;;15.45;68.85
19259;BME280;9763;48.780;9.212;2022-11-02T07:11:43;99117.88;;;15.51;69.22
19259;BME280;9763;48.780;9.212;2022-11-02T07:15:08;99128.00;;;15.57;69.35
19259;BME280;9763;48.780;9.212;2022-11-02T07:18:32;99133.63;;;15.64;69.42
19259;BME280;9763;48.780;9.212;2022-11-02T07:21:57;99137.13;;;15.75;69.11
19259;BME280;9763;48.780;9.212;2022-11-02T07:25:22;99139.06;;;15.84;69.31
19259;BME280;9763;48.780;9.212;2022-11-02T07:28:46;99143.31;;;15.98;68.69
19259;BME280;9763;48.780;9.212;2022-11-02T07:32:10;99141.94;;;16.16;68.84
19259;BME280;9763;48.780;9.212;2022-11-02T07:35:34;99158.84;;;16.36;69.02
19259;BME280;9763;48.780;9.212;2022-11-02T07:39:00;99153.25;;;16.52;68.75
19259;BME280;9763;48.780;9.212;2022-11-02T07:42:24;99159.97;;;16.67;68.45
19259;BME280;9763;48.780;9.212;2022-11-02T07:45:51;99159.16;;;16.78;67.78
19259;BME280;9763;48.780;9.212;2022-11-02T07:49:14;99162.25;;;16.83;67.45
19259;BME280;9763;48.780;9.212;2022-11-02T07:52:45;99161.91;;;16.87;67.87
19259;BME280;9763;48.780;9.212;2022-11-02T07:56:10;99163.91;;;16.95;67.75
19259;BME280;9763;48.780;9.212;2022-11-02T07:59:34;99164.03;;;17.05;67.93
19259;BME280;9763;48.780;9.212;2022-11-02T08:03:00;99169.44;;;17.14;67.81
19259;BME280;9763;48.780;9.212;2022-11-02T08:06:25;99166.63;;;17.27;67.91
19259;BME280;9763;48.780;9.212;2022-11-02T08:09:49;99170.66;;;17.42;67.72
19259;BME280;9763;48.780;9.212;2022-11-02T08:13:16;99170.88;;;17.61;67.38
19259;BME280;9763;48.780;9.212;2022-11-02T08:16:40;99169.97;;;17.83;67.90
19259;BME280;9763;48.780;9.212;2022-11-02T08:20:05;99178.38;;;18.09;67.83
19259;BME280;9763;48.780;9.212;2022-11-02T08:23:28;99170.44;;;18.30;67.06
19259;BME280;9763;48.780;9.212;2022-11-02T08:26:52;99177.09;;;18.45;66.95
19259;BME280;9763;48.780;9.212;2022-11-02T08:30:18;99171.97;;;18.53;67.00
19259;BME280;9763;48.780;9.212;2022-11-02T08:33:42;99178.63;;;18.68;67.04
19259;BME280;9763;48.780;9.212;2022-11-02T08:37:06;99177.03;;;18.87;66.98
19259;BME280;9763;48.780;9.212;2022-11-02T08:40:31;99167.31;;;18.97;65.99
19259;BME280;9763;48.780;9.212;2022-11-02T08:43:55;99179.44;;;18.99;66.18
19259;BME280;9763;48.780;9.212;2022-11-02T08:47:21;99180.69;;;18.95;65.79
19259;BME280;9763;48.780;9.212;2022-11-02T08:50:47;99187.59;;;18.87;65.70
19259;BME280;9763;48.780;9.212;2022-11-02T08:54:11;99178.28;;;18.83;65.77
19259;BME280;9763;48.780;9.212;2022-11-02T08:57:44;99187.19;;;18.82;66.30
19259;BME280;9763;48.780;9.212;2022-11-02T09:01:08;99182.91;;;18.90;65.89
19259;BME280;9763;48.780;9.212;2022-11-02T09:04:33;99185.72;;;18.98;66.22
19259;BME280;9763;48.780;9.212;2022-11-02T09:07:59;99181.00;;;19.02;66.00
19259;BME280;9763;48.780;9.212;2022-11-02T09:11:24;99176.81;;;18.99;65.92
19259;BME280;9763;48.780;9.212;2022-11-02T09:14:47;99176.22;;;18.96;65.59
19259;BME280;9763;48.780;9.212;2022-11-02T09:18:11;99187.34;;;18.90;65.84
19259;BME280;9763;48.780;9.212;2022-11-02T09:21:36;99180.63;;;18.86;65.67
19259;BME280;9763;48.780;9.212;2022-11-02T09:25:00;99180.78;;;18.84;66.05
19259;BME280;9763;48.780;9.212;2022-11-02T09:28:24;99189.28;;;18.88;66.02
19259;BME280;9763;48.780;9.212;2022-11-02T09:31:48;99188.31;;;18.89;65.47
19259;BME280;9763;48.780;9.212;2022-11-02T09:35:12;99192.06;;;18.86;65.10
19259;BME280;9763;48.780;9.212;2022-11-02T09:38:37;99187.59;;;18.87;65.11
19259;BME280;9763;48.780;9.212;2022-11-02T09:42:05;99189.28;;;18.88;64.67
19259;BME280;9763;48.780;9.212;2022-11-02T09:45:33;99189.03;;;18.91;64.83
19259;BME280;9763;48.780;9.212;2022-11-02T09:49:01;99187.09;;;18.93;64.40
19259;BME280;9763;48.780;9.212;2022-11-02T09:52:30;99198.94;;;18.98;65.03
19259;BME280;9763;48.780;9.212;2022-11-02T09:55:58;99199.13;;;19.06;64.19
19259;BME280;9763;48.780;9.212;2022-11-02T09:59:25;99212.53;;;19.15;64.08
19259;BME280;9763;48.780;9.212;2022-11-02T10:02:56;99209.47;;;19.19;64.04
19259;BME280;9763;48.780;9.212;2022-11-02T10:06:25;99213.66;;;19.22;64.46
19259;BME280;9763;48.780;9.212;2022-11-02T10:09:54;99213.50;;;19.23;63.92
19259;BME280;9763;48.780;9.212;2022-11-02T10:13:30;99207.38;;;19.23;63.15
19259;BME280;9763;48.780;9.212;2022-11-02T10:17:00;99214.22;;;19.25;63.67
19259;BME280;9763;48.780;9.212;2022-11-02T10:20:29;99209.06;;;19.33;62.95
19259;BME280;9763;48.780;9.212;2022-11-02T10:23:55;99205.78;;;19.41;62.89
19259;BME280;9763;48.780;9.212;2022-11-02T10:27:24;99194.63;;;19.47;63.04
19259;BME280;9763;48.780;9.212;2022-11-02T10:30:52;99183.66;;;19.52;62.85
19259;BME280;9763;48.780;9.212;2022-11-02T10:34:23;99193.16;;;19.54;62.57
19259;BME280;9763;48.780;9.212;2022-11-02T10:38:01;99193.16;;;19.54;61.76
19259;BME280;9763;48.780;9.212;2022-11-02T10:41:49;99192.72;;;19.49;61.75
19259;BME280;9763;48.780;9.212;2022-11-02T10:49:37;99181.72;;;19.63;62.13
19259;BME280;9763;48.780;9.212;2022-11-02T10:53:11;99185.34;;;19.72;62.08
19259;BME280;9763;48.780;9.212;2022-11-02T10:56:56;99189.41;;;19.76;61.84
19259;BME280;9763;48.780;9.212;2022-11-02T11:00:23;99187.88;;;19.73;61.70
19259;BME280;9763;48.780;9.212;2022-11-02T11:03:59;99190.06;;;19.68;61.70
19259;BME280;9763;48.780;9.212;2022-11-02T11:07:26;99189.09;;;19.60;61.60
19259;BME280;9763;48.780;9.212;2022-11-02T11:10:49;99189.66;;;19.54;60.82
19259;BME280;9763;48.780;9.212;2022-11-02T11:14:16;99191.59;;;19.52;61.09
19259;BME280;9763;48.780;9.212;2022-11-02T11:18:11;99185.59;;;19.50;60.13
19259;BME280;9763;48.780;9.212;2022-11-02T11:21:56;99176.66;;;19.41;60.87
19259;BME280;9763;48.780;9.212;2022-11-02T11:25:23;99184.16;;;19.36;60.28
19259;BME280;9763;48.780;9.212;2022-11-02T11:28:54;99172.44;;;19.29;60.51
19259;BME280;9763;48.780;9.212;2022-11-02T11:32:20;99174.66;;;19.24;60.25
19259;BME280;9763;48.780;9.212;2022-11-02T11:35:51;99177.56;;;19.21;60.95
19259;BME280;9763;48.780;9.212;2022-11-02T11:39:23;99181.59;;;19.15;61.02
19259;BME280;9763;48.780;9.212;2022-11-02T11:42:51;99184.38;;;19.14;60.65
19259;BME280;9763;48.780;9.212;2022-11-02T11:46:23;99176.47;;;19.23;61.26
19259;BME280;9763;48.780;9.212;2022-11-02T11:50:04;99167.69;;;19.32;60.37
19259;BME280;9763;48.780;9.212;2022-11-02T11:54:04;99151.84;;;19.42;60.27
19259;BME280;9763;48.780;9.212;2022-11-02T11:57:30;99150.59;;;19.46;60.86
19259;BME280;9763;48.780;9.212;2022-11-02T12:01:16;99150.03;;;19.42;60.58
19259;BME280;9763;48.780;9.212;2022-11-02T12:04:41;99145.00;;;19.39;60.19
19259;BME280;9763;48.780;9.212;2022-11-02T12:08:17;99140.94;;;19.35;58.67
19259;BME280;9763;48.780;9.212;2022-11-02T12:11:51;99136.34;;;19.28;58.13
19259;BME280;9763;48.780;9.212;2022-11-02T12:15:37;99137.56;;;19.14;58.11
19259;BME280;9763;48.780;9.212;2022-11-02T12:19:21;99127.50;;;18.98;58.23
19259;BME280;9763;48.780;9.212;2022-11-02T12:23:02;99128.19;;;18.91;58.48
19259;BME280;9763;48.780;9.212;2022-11-02T12:26:41;99124.81;;;18.89;58.69
19259;BME280;9763;48.780;9.212;2022-11-02T12:30:14;99108.38;;;18.85;58.61
19259;BME280;9763;48.780;9.212;2022-11-02T12:33:53;99112.28;;;18.81;58.60
19259;BME280;9763;48.780;9.212;2022-11-02T12:37:31;99103.78;;;18.78;57.73
19259;BME280;9763;48.780;9.212;2022-11-02T12:41:06;99106.16;;;18.81;57.56
19259;BME280;9763;48.780;9.212;2022-11-02T12:44:54;99119.81;;;18.86;57.98
19259;BME280;9763;48.780;9.212;2022-11-02T12:48:28;99107.16;;;18.99;58.12
19259;BME280;9763;48.780;9.212;2022-11-02T12:51:59;99113.88;;;19.13;57.16
19259;BME280;9763;48.780;9.212;2022-11-02T12:55:31;99107.09;;;19.20;57.65
19259;BME280;9763;48.780;9.212;2022-11-02T12:59:00;99099.97;;;19.20;56.77
19259;BME280;9763;48.780;9.212;2022-11-02T13:02:26;99096.50;;;19.20;57.57
19259;BME280;9763;48.780;9.212;2022-11-02T13:05:54;99089.66;;;19.17;56.93
19259;BME280;9763;48.780;9.212;2022-11-02T13:09:27;99097.88;;;19.14;57.05
19259;BME280;9763;48.780;9.212;2022-11-02T13:12:58;99099.69;;;19.14;57.15
19259;BME280;9763;48.780;9.212;2022-11-02T13:16:29;99102.34;;;19.14;57.79
19259;BME280;9763;48.780;9.212;2022-11-02T13:19:57;99100.66;;;19.13;58.37
19259;BME280;9763;48.780;9.212;2022-11-02T13:23:30;99083.22;;;19.10;58.17
19259;BME280;9763;48.780;9.212;2022-11-02T13:27:01;99089.94;;;19.04;58.31
19259;BME280;9763;48.780;9.212;2022-11-02T13:30:49;99089.47;;;18.99;57.70
19259;BME280;9763;48.780;9.212;2022-11-02T13:34:17;99091.72;;;18.94;57.99
19259;BME280;9763;48.780;9.212;2022-11-02T13:37:47;99079.84;;;18.89;57.56
19259;BME280;9763;48.780;9.212;2022-11-02T13:41:22;99076.47;;;18.77;58.07
19259;BME280;9763;48.780;9.212;2022-11-02T13:45:12;99083.56;;;18.67;58.05
19259;BME280;9763;48.780;9.212;2022-11-02T13:48:52;99080.75;;;18.59;57.69
19259;BME280;9763;48.780;9.212;2022-11-02T13:52:21;99090.97;;;18.52;57.66
19259;BME280;9763;48.780;9.212;2022-11-02T13:55:53;99093.88;;;18.49;58.08
19259;BME280;9763;48.780;9.212;2022-11-02T13:59:20;99076.50;;;18.47;58.20
19259;BME280;9763;48.780;9.212;2022-11-02T14:02:46;99081.91;;;18.45;58.20
19259;BME280;9763;48.780;9.212;2022-11-02T14:06:13;99075.34;;;18.40;58.42
19259;BME280;9763;48.780;9.212;2022-11-02T14:09:41;99083.81;;;18.33;58.45
19259;BME280;9763;48.780;9.212;2022-11-02T14:13:12;99083.63;;;18.25;58.49
19259;BME280;9763;48.780;9.212;2022-11-02T14:16:59;99085.53;;;18.23;58.45
19259;BME280;9763;48.780;9.212;2022-11-02T14:20:34;99080.03;;;18.36;58.73
19259;BME280;9763;48.780;9.212;2022-11-02T14:23:59;99079.28;;;18.45;58.41
19259;BME280;9763;48.780;9.212;2022-11-02T14:27:29;99087.25;;;18.55;58.71
19259;BME280;9763;48.780;9.212;2022-11-02T14:30:56;99085.03;;;18.60;59.26
19259;BME280;9763;48.780;9.212;2022-11-02T14:34:30;99087.44;;;18.63;59.13
19259;BME280;9763;48.780;9.212;2022-11-02T14:38:24;99082.13;;;18.63;58.88
19259;BME280;9763;48.780;9.212;2022-11-02T14:42:15;99080.75;;;18.59;59.68
19259;BME280;9763;48.780;9.212;2022-11-02T14:45:54;99076.44;;;18.58;59.25
19259;BME280;9763;48.780;9.212;2022-11-02T14:49:24;99085.31;;;18.57;59.25
19259;BME280;9763;48.780;9.212;2022-11-02T14:53:01;99084.59;;;18.55;59.62
19259;BME280;9763;48.780;9.212;2022-11-02T14:56:45;99082.47;;;18.49;59.25
19259;BME280;9763;48.780;9.212;2022-11-02T15:00:19;99084.69;;;18.44;59.36
19259;BME280;9763;48.780;9.212;2022-11-02T15:03:44;99083.97;;;18.42;59.82
19259;BME280;9763;48.780;9.212;2022-11-02T15:07:19;99080.22;;;18.34;59.90
19259;BME280;9763;48.780;9.212;2022-11-02T15:10:44;99070.41;;;18.25;59.55
19259;BME280;9763;48.780;9.212;2022-11-02T15:18:31;99066.66;;;17.97;60.06
19259;BME280;9763;48.780;9.212;2022-11-02T15:22:31;99065.19;;;17.84;59.38
19259;BME280;9763;48.780;9.212;2022-11-02T15:25:58;99060.34;;;17.68;60.01
19259;BME280;9763;48.780;9.212;2022-11-02T15:29:32;99064.09;;;17.54;59.96
19259;BME280;9763;48.780;9.212;2022-11-02T15:33:00;99066.34;;;17.38;60.05
19259;BME280;9763;48.780;9.212;2022-11-02T15:36:30;99047.31;;;17.23;60.29
19259;BME280;9763;48.780;9.212;2022-11-02T15:39:57;99050.25;;;17.09;59.80
19259;BME280;9763;48.780;9.212;2022-11-02T15:43:48;99046.09;;;16.96;59.74
19259;BME280;9763;48.780;9.212;2022-11-02T15:47:23;99048.16;;;16.81;60.27
19259;BME280;9763;48.780;9.212;2022-11-02T15:50:56;99048.56;;;16.65;60.37
19259;BME280;9763;48.780;9.212;2022-11-02T15:54:36;99049.84;;;16.48;60.61
19259;BME280;9763;48.780;9.212;2022-11-02T15:58:18;99053.34;;;16.27;60.68
19259;BME280;9763;48.780;9.212;2022-11-02T16:01:43;99054.53;;;16.11;61.40
19259;BME280;9763;48.780;9.212;2022-11-02T16:05:18;99051.66;;;16.03;60.93
19259;BME280;9763;48.780;9.212;2022-11-02T16:08:42;99060.94;;;15.96;61.09
19259;BME280;9763;48.780;9.212;2022-11-02T16:12:14;99047.22;;;15.93;60.53
19259;BME280;9763;48.780;9.212;2022-11-02T16:15:40;99049.81;;;15.81;61.22
19259;BME280;9763;48.780;9.212;2022-11-02T16:19:04;99052.28;;;15.72;60.87
19259;BME280;9763;48.780;9.212;2022-11-02T16:22:28;99047.72;;;15.63;61.11
19259;BME280;9763;48.780;9.212;2022-11-02T16:25:53;99044.84;;;15.55;61.20
19259;BME280;9763;48.780;9.212;2022-11-02T16:29:28;99047.78;;;15.50;60.97
19259;BME280;9763;48.780;9.212;2022-11-02T16:32:59;99045.72;;;15.42;61.06
19259;BME280;9763;48.780;9.212;2022-11-02T16:36:25;99046.28;;;15.35;61.49
19259;BME280;9763;48.780;9.212;2022-11-02T16:39:50;99047.81;;;15.26;61.24
19259;BME280;9763;48.780;9.212;2022-11-02T16:43:15;99050.91;;;15.20;61.99
19259;BME280;9763;48.780;9.212;2022-11-02T16:46:48;99043.47;;;15.14;61.42
19259;BME280;9763;48.780;9.212;2022-11-02T16:50:20;99043.91;;;15.08;61.71
19259;BME280;9763;48.780;9.212;2022-11-02T16:53:45;99044.25;;;15.03;62.32
19259;BME280;9763;48.780;9.212;2022-11-02T16:57:16;99054.13;;;15.00;62.38
19259;BME280;9763;48.780;9.212;2022-11-02T17:00:55;99047.19;;;14.99;62.40
19259;BME280;9763;48.780;9.212;2022-11-02T17:04:23;99028.09;;;14.97;62.28
19259;BME280;9763;48.780;9.212;2022-11-02T17:07:58;99030.00;;;14.95;61.98
19259;BME280;9763;48.780;9.212;2022-11-02T17:11:23;99031.88;;;14.93;62.21
19259;BME280;9763;48.780;9.212;2022-11-02T17:14:48;99037.25;;;14.91;61.96
19259;BME280;9763;48.780;9.212;2022-11-02T17:18:25;99032.31;;;14.87;61.81
19259;BME280;9763;48.780;9.212;2022-11-02T17:22:04;99026.69;;;14.80;62.40
19259;BME280;9763;48.780;9.212;2022-11-02T17:25:33;99031.53;;;14.73;62.36
19259;BME280;9763;48.780;9.212;2022-11-02T17:28:59;99028.41;;;14.68;62.09
19259;BME280;9763;48.780;9.212;2022-11-02T17:32:24;99022.63;;;14.63;62.64
19259;BME280;9763;48.780;9.212;2022-11-02T17:35:50;99011.53;;;14.60;62.87
19259;BME280;9763;48.780;9.212;2022-11-02T17:39:18;99011.63;;;14.58;62.65
19259;BME280;9763;48.780;9.212;2022-11-02T17:42:42;99016.25;;;14.55;62.21
19259;BME280;9763;48.780;9.212;2022-11-02T17:46:21;99008.47;;;14.53;62.78
19259;BME280;9763;48.780;9.212;2022-11-02T17:49:44;99009.53;;;14.51;62.25
19259;BME280;9763;48.780;9.212;2022-11-02T17:53:10;99003.56;;;14.49;62.68
19259;BME280;9763;48.780;9.212;2022-11-02T17:56:36;98997.69;;;14.45;62.42
19259;BME280;9763;48.780;9.212;2022-11-02T18:00:01;99000.69;;;14.39;62.88
19259;BME280;9763;48.780;9.212;2022-11-02T18:03:33;98995.06;;;14.32;63.03
19259;BME280;9763;48.780;9.212;2022-11-02T18:06:57;98991.91;;;14.27;62.72
19259;BME280;9763;48.780;9.212;2022-11-02T18:10:23;98992.84;;;14.26;63.15
19259;BME280;9763;48.780;9.212;2022-11-02T18:13:48;98987.75;;;14.25;62.62
19259;BME280;9763;48.780;9.212;2022-11-02T18:17:12;98985.22;;;14.23;63.06
19259;BME280;9763;48.780;9.212;2022-11-02T18:20:36;98994.13;;;14.21;63.19
19259;BME280;9763;48.780;9.212;2022-11-02T18:24:04;98986.56;;;14.16;62.98
19259;BME280;9763;48.780;9.212;2022-11-02T18:27:28;98985.00;;;14.14;62.85
19259;BME280;9763;48.780;9.212;2022-11-02T18:30:53;98980.81;;;14.11;63.05
19259;BME280;9763;48.780;9.212;2022-11-02T18:34:17;98981.88;;;14.09;62.72
19259;BME280;9763;48.780;9.212;2022-11-02T18:37:41;98978.41;;;14.08;62.90
19259;BME280;9763;48.780;9.212;2022-11-02T18:41:06;98976.84;;;14.05;62.78
19259;BME280;9763;48.780;9.212;2022-11-02T18:44:44;98971.78;;;14.02;62.95
19259;BME280;9763;48.780;9.212;2022-11-02T18:48:09;98984.31;;;13.99;63.48
19259;BME280;9763;48.780;9.212;2022-11-02T18:51:33;98990.50;;;13.98;63.39
19259;BME280;9763;48.780;9.212;2022-11-02T18:54:56;98981.06;;;13.95;63.53